Time;durP1;ratioP1;P1;durP2;ratioP2;P2;SDS_P1;SDS_P2;PMS_P1;PMS_P2;Temp;Humidity;BMP_temperature;BMP_pressure;BME280_temperature;BME280_humidity;BME280_pressure;Samples;Min_cycle;Max_cycle;Signal;HPM_P1;HPM_P2
2024/01/01 00:00:55;;;;;;;0.10;0.00;;;;;;;23.17;55.97;97298.22;7397622;19;20015;-49
2024/01/01 00:03:21;;;;;;;2.35;0.60;;;;;;;19.65;62.92;97307.56;7397569;19;20070;-49
2024/01/01 00:05:48;;;;;;;2.53;1.63;;;;;;;20.83;63.20;97294.44;7399998;19;20021;-49
2024/01/01 00:08:14;;;;;;;12.43;1.85;;;;;;;21.59;56.32;97292.97;7400934;19;20017;-49
2024/01/01 00:10:40;;;;;;;3.15;1.10;;;;;;;21.53;56.18;97293.31;7401560;19;20014;-50
2024/01/01 00:13:06;;;;;;;1.20;0.75;;;;;;;20.65;60.98;97299.63;7396847;19;20031;-49
2024/01/01 00:15:32;;;;;;;0.20;0.20;;;;;;;20.19;62.51;97302.13;7395618;19;20074;-50
2024/01/01 00:17:58;;;;;;;1.27;0.30;;;;;;;20.01;63.56;97309.38;7395799;19;20014;-50
2024/01/01 00:20:24;;;;;;;0.65;0.40;;;;;;;20.12;64.09;97322.84;7402096;19;20010;-51
2024/01/01 00:22:51;;;;;;;0.38;0.32;;;;;;;21.19;60.08;97332.84;7397849;19;20011;-50
2024/01/01 00:25:17;;;;;;;0.57;0.55;;;;;;;20.89;59.84;97329.53;7397251;19;20010;-50
2024/01/01 00:27:43;;;;;;;1.33;0.65;;;;;;;21.64;58.57;97334.34;7395144;19;20006;-50
2024/01/01 00:30:10;;;;;;;3.92;0.32;;;;;;;22.09;56.79;97338.63;7398595;19;20031;-64
2024/01/01 00:32:36;;;;;;;0.32;0.25;;;;;;;22.38;55.31;97341.84;7395530;19;20035;-62
2024/01/01 00:35:02;;;;;;;2.67;1.05;;;;;;;22.17;56.06;97341.97;7396336;19;20394;-61
2024/01/01 00:37:29;;;;;;;5.15;1.10;;;;;;;22.31;54.77;97351.31;7396648;19;20014;-60
2024/01/01 00:39:55;;;;;;;0.93;0.60;;;;;;;22.00;55.19;97348.00;7396310;19;20022;-60
2024/01/01 00:42:22;;;;;;;0.47;0.25;;;;;;;21.84;55.55;97364.00;7396079;19;20507;-60
2024/01/01 00:44:48;;;;;;;3.63;0.40;;;;;;;22.11;54.33;97358.59;7395197;19;20014;-59
2024/01/01 00:47:14;;;;;;;0.30;0.30;;;;;;;22.90;52.89;97366.19;7393408;19;20011;-59
2024/01/01 00:49:40;;;;;;;0.22;0.22;;;;;;;23.91;49.60;97381.22;7396123;19;20025;-60
2024/01/01 00:52:06;;;;;;;0.65;0.65;;;;;;;22.07;53.04;97377.47;7395163;19;20011;-59
2024/01/01 00:54:32;;;;;;;23.65;1.65;;;;;;;22.90;52.22;97372.63;7399256;19;20024;-59
2024/01/01 00:56:59;;;;;;;6.32;0.85;;;;;;;21.77;53.37;97381.91;7394019;19;20433;-50
2024/01/01 00:59:25;;;;;;;1.38;0.90;;;;;;;20.92;55.74;97393.38;7395004;19;20017;-50
2024/01/01 01:01:51;;;;;;;7.65;0.47;;;;;;;20.51;57.03;97388.44;7394675;19;20049;-50
2024/01/01 01:04:17;;;;;;;0.20;0.20;;;;;;;20.46;57.99;97390.25;7395107;19;20487;-51
2024/01/01 01:06:45;;;;;;;0.60;0.60;;;;;;;20.94;56.81;97396.31;7394506;19;20022;-50
2024/01/01 01:09:12;;;;;;;0.10;0.10;;;;;;;20.92;57.82;97404.69;7395092;19;20033;-50
2024/01/01 01:11:40;;;;;;;1.95;0.65;;;;;;;22.97;53.13;97405.69;7393747;19;20127;-50
2024/01/01 01:14:07;;;;;;;4.47;1.08;;;;;;;21.98;53.82;97418.75;7395557;19;20014;-50
2024/01/01 01:16:33;;;;;;;8.48;0.75;;;;;;;21.22;55.36;97414.50;7393360;19;20019;-52
2024/01/01 01:18:59;;;;;;;0.10;0.10;;;;;;;20.52;56.70;97424.59;7394146;19;20347;-50
2024/01/01 01:21:26;;;;;;;1.40;1.27;;;;;;;19.03;62.68;97427.94;7394780;19;20481;-50
2024/01/01 01:23:52;;;;;;;4.10;0.90;;;;;;;19.03;66.04;97425.13;7398303;19;20021;-51
2024/01/01 01:26:19;;;;;;;0.10;0.10;;;;;;;19.76;62.48;97427.63;7394321;19;20459;-51
2024/01/01 01:28:45;;;;;;;0.25;0.25;;;;;;;19.70;61.89;97438.50;7393637;19;20010;-51
2024/01/01 01:31:11;;;;;;;9.73;1.50;;;;;;;19.09;64.00;97434.03;7398678;19;20779;-51
2024/01/01 01:33:38;;;;;;;0.28;0.28;;;;;;;19.38;62.96;97431.25;7394515;19;20011;-50
2024/01/01 01:36:04;;;;;;;0.22;0.20;;;;;;;21.02;58.50;97430.84;7393797;19;20053;-50
2024/01/01 01:38:31;;;;;;;1.20;0.50;;;;;;;22.06;54.44;97427.75;7394592;19;20023;-50
2024/01/01 01:40:58;;;;;;;0.10;0.10;;;;;;;21.05;56.61;97440.97;7395842;19;20371;-50
2024/01/01 01:43:25;;;;;;;1.02;0.25;;;;;;;22.50;54.89;97438.28;7393645;19;20043;-50
2024/01/01 01:45:52;;;;;;;0.30;0.22;;;;;;;23.79;51.00;97441.00;7393248;19;20018;-50
2024/01/01 01:48:18;;;;;;;0.95;0.40;;;;;;;26.42;44.55;97438.97;7394444;19;20019;-50
2024/01/01 01:50:46;;;;;;;0.65;0.45;;;;;;;26.80;42.47;97455.00;7395566;19;20017;-49
2024/01/01 01:53:23;;;;;;;0.55;0.55;;;;;;;23.16;47.15;97472.78;7395781;19;20021;-50
2024/01/01 01:55:52;;;;;;;0.50;0.50;;;;;;;22.02;50.43;97470.00;7392392;19;20463;-50
2024/01/01 01:58:18;;;;;;;1.25;0.75;;;;;;;24.68;45.15;97468.66;7393107;19;20478;-50
2024/01/01 02:00:48;;;;;;;0.95;0.93;;;;;;;22.23;48.37;97478.44;7394391;19;20522;-50
2024/01/01 02:03:14;;;;;;;0.20;0.20;;;;;;;20.36;54.04;97492.06;7392635;19;20018;-50
2024/01/01 02:05:41;;;;;;;0.22;0.22;;;;;;;20.67;55.03;97506.22;7393265;19;20063;-50
2024/01/01 02:08:08;;;;;;;0.13;0.10;;;;;;;19.25;59.09;97497.28;7392173;19;20059;-50
2024/01/01 02:10:34;;;;;;;0.68;0.68;;;;;;;21.01;54.74;97500.09;7395617;19;20033;-50
2024/01/01 02:13:01;;;;;;;0.20;0.20;;;;;;;22.55;52.59;97497.47;7391765;19;20082;-50
2024/01/01 02:15:28;;;;;;;0.10;0.10;;;;;;;25.25;43.97;97501.59;7391541;19;20026;-50
2024/01/01 02:17:55;;;;;;;0.10;0.10;;;;;;;25.79;42.52;97494.38;7393599;19;20015;-50
2024/01/01 02:20:21;;;;;;;4.10;0.20;;;;;;;23.99;44.58;97509.63;7395239;19;20010;-50
2024/01/01 02:22:47;;;;;;;0.20;0.20;;;;;;;23.24;46.20;97513.03;7392898;19;20154;-50
2024/01/01 02:25:16;;;;;;;0.10;0.10;;;;;;;24.69;44.23;97518.50;7392454;19;20035;-50
2024/01/01 02:27:42;;;;;;;0.10;0.10;;;;;;;25.09;42.88;97517.13;7391492;19;20459;-50
2024/01/01 02:30:10;;;;;;;0.40;0.40;;;;;;;26.46;40.56;97527.63;7393591;19;20010;-50
2024/01/01 02:32:37;;;;;;;0.15;0.10;;;;;;;24.61;42.31;97543.69;7391500;19;20052;-50
2024/01/01 02:35:07;;;;;;;0.10;0.10;;;;;;;23.05;43.92;97542.44;7392571;19;20352;-50
2024/01/01 02:37:34;;;;;;;9.50;0.50;;;;;;;22.85;46.34;97546.16;7392315;19;20010;-50
2024/01/01 02:40:01;;;;;;;5.20;1.00;;;;;;;22.78;46.03;97558.47;7392834;19;20007;-50
2024/01/01 02:42:28;;;;;;;0.13;0.13;;;;;;;21.99;47.21;97544.91;7392476;19;20490;-50
2024/01/01 02:44:55;;;;;;;0.10;0.10;;;;;;;24.27;44.13;97558.88;7393475;19;20479;-50
2024/01/01 02:47:21;;;;;;;0.10;0.10;;;;;;;23.03;46.14;97556.50;7393009;19;20010;-50
2024/01/01 02:49:47;;;;;;;0.10;0.10;;;;;;;24.54;43.95;97556.84;7393862;19;20006;-50
2024/01/01 02:52:13;;;;;;;1.85;0.50;;;;;;;25.28;41.63;97557.34;7397633;19;20007;-50
2024/01/01 02:54:40;;;;;;;3.80;1.50;;;;;;;22.95;44.10;97573.06;7397732;19;20335;-50
2024/01/01 02:57:06;;;;;;;13.88;0.82;;;;;;;26.09;40.83;97575.75;7399504;19;20102;-51
2024/01/01 02:59:33;;;;;;;0.10;0.10;;;;;;;22.10;45.24;97589.59;7399570;19;20780;-50
2024/01/01 03:02:00;;;;;;;0.30;0.30;;;;;;;21.98;46.14;97600.13;7399236;19;20035;-50
2024/01/01 03:04:28;;;;;;;0.10;0.10;;;;;;;23.59;43.96;97593.28;7399517;19;20023;-50
2024/01/01 03:06:54;;;;;;;0.10;0.10;;;;;;;21.89;46.10;97606.63;7399429;19;20010;-50
2024/01/01 03:09:21;;;;;;;1.00;0.43;;;;;;;21.93;46.47;97615.38;7398282;19;20007;-50
2024/01/01 03:11:47;;;;;;;0.10;0.00;;;;;;;21.80;47.15;97616.66;7403872;19;20007;-50
2024/01/01 03:14:13;;;;;;;0.82;0.30;;;;;;;21.78;46.94;97615.75;7398115;19;20026;-50
2024/01/01 03:16:39;;;;;;;0.30;0.13;;;;;;;21.05;49.08;97616.44;7396586;19;20010;-50
2024/01/01 03:19:05;;;;;;;0.20;0.17;;;;;;;21.11;46.94;97611.19;7398884;19;20015;-50
2024/01/01 03:21:32;;;;;;;0.10;0.00;;;;;;;34.67;31.13;97607.28;7401074;19;20486;-50
2024/01/01 03:23:58;;;;;;;0.10;0.10;;;;;;;37.37;26.56;97590.69;7401107;19;20011;-51
2024/01/01 03:26:24;;;;;;;0.30;0.20;;;;;;;27.91;32.80;97599.97;7396973;19;20014;-50
2024/01/01 03:28:51;;;;;;;1.08;0.35;;;;;;;28.29;31.06;97610.19;7401328;19;20577;-50
2024/01/01 03:31:17;;;;;;;2.58;0.20;;;;;;;21.80;40.00;97627.22;7401712;19;20077;-50
2024/01/01 03:33:45;;;;;;;0.35;0.35;;;;;;;24.54;38.45;97630.84;7401859;19;20021;-51
2024/01/01 03:36:12;;;;;;;8.48;0.30;;;;;;;23.81;38.94;97633.66;7396043;19;20095;-51
2024/01/01 03:38:38;;;;;;;0.13;0.05;;;;;;;25.05;37.09;97637.28;7398385;19;20019;-51
2024/01/01 03:41:04;;;;;;;0.25;0.25;;;;;;;25.05;37.09;97650.78;7401822;19;20013;-50
2024/01/01 03:43:30;;;;;;;0.20;0.10;;;;;;;24.43;37.10;97653.69;7398579;19;20011;-50
2024/01/01 03:45:57;;;;;;;0.28;0.28;;;;;;;24.62;37.37;97661.91;7397083;19;20434;-51
2024/01/01 03:48:23;;;;;;;6.50;0.63;;;;;;;25.42;36.18;97663.56;7396969;19;20028;-51
2024/01/01 03:50:49;;;;;;;0.15;0.15;;;;;;;20.86;41.73;97670.25;7399153;19;20030;-50
2024/01/01 03:53:15;;;;;;;0.80;0.52;;;;;;;19.85;43.74;97678.28;7398312;19;20014;-51
2024/01/01 03:55:41;;;;;;;12.82;0.82;;;;;;;20.06;44.69;97679.19;7396587;19;20339;-51
2024/01/01 03:58:07;;;;;;;0.30;0.30;;;;;;;20.83;43.93;97685.59;7397337;19;20074;-51
2024/01/01 04:00:33;;;;;;;0.50;0.30;;;;;;;19.68;45.50;97688.34;7398464;19;20070;-51
2024/01/01 04:03:00;;;;;;;3.30;0.63;;;;;;;20.95;43.94;97703.44;7396590;19;20097;-51
2024/01/01 04:05:26;;;;;;;0.10;0.10;;;;;;;20.45;44.73;97701.84;7398493;19;20014;-50
2024/01/01 04:07:52;;;;;;;7.22;0.45;;;;;;;25.42;38.90;97689.22;7393580;19;20020;-51
2024/01/01 04:10:19;;;;;;;1.27;0.35;;;;;;;22.44;40.29;97707.34;7389859;19;20002;-51
2024/01/01 04:12:46;;;;;;;0.10;0.10;;;;;;;20.87;43.68;97702.88;7400900;19;20066;-51
2024/01/01 04:15:12;;;;;;;0.80;0.80;;;;;;;21.21;44.02;97701.00;7401687;19;20074;-50
2024/01/01 04:17:38;;;;;;;0.10;0.10;;;;;;;20.23;44.62;97704.53;7397870;19;20014;-51
2024/01/01 04:20:10;;;;;;;0.47;0.47;;;;;;;20.52;44.60;97715.84;7397955;19;20043;-51
2024/01/01 04:22:45;;;;;;;0.10;0.10;;;;;;;19.95;45.32;97715.75;7401487;19;20391;-50
2024/01/01 04:25:11;;;;;;;0.15;0.15;;;;;;;20.98;44.39;97716.41;7398143;19;20011;-50
2024/01/01 04:27:38;;;;;;;0.30;0.30;;;;;;;21.37;44.03;97721.97;7396855;19;20019;-51
2024/01/01 04:30:05;;;;;;;12.50;0.40;;;;;;;23.49;41.65;97726.25;7396550;19;20084;-50
2024/01/01 04:32:31;;;;;;;0.40;0.20;;;;;;;24.86;39.08;97728.78;7399273;19;20010;-50
2024/01/01 04:34:57;;;;;;;0.10;0.10;;;;;;;26.03;37.20;97743.75;7400891;19;20002;-50
2024/01/01 04:37:23;;;;;;;0.10;0.10;;;;;;;26.41;36.90;97734.34;7400258;19;20018;-51
2024/01/01 04:39:49;;;;;;;0.22;0.20;;;;;;;25.14;37.57;97750.31;7397296;19;20014;-51
2024/01/01 04:42:15;;;;;;;1.17;0.25;;;;;;;23.20;40.40;97759.88;7399392;19;20474;-51
2024/01/01 04:44:41;;;;;;;0.10;0.00;;;;;;;26.10;36.76;97766.28;7396095;19;20011;-51
2024/01/01 04:47:07;;;;;;;4.50;0.50;;;;;;;23.82;38.74;97769.50;7396184;19;20090;-51
2024/01/01 04:49:34;;;;;;;4.00;0.80;;;;;;;23.24;40.28;97780.75;7396532;19;20745;-50
2024/01/01 04:52:00;;;;;;;0.20;0.20;;;;;;;23.34;39.74;97783.53;7399145;19;20022;-50
2024/01/01 04:54:26;;;;;;;0.20;0.10;;;;;;;21.28;42.55;97785.78;7400675;19;20078;-51
2024/01/01 04:56:52;;;;;;;0.10;0.08;;;;;;;19.50;45.75;97791.44;7394048;19;20025;-50
2024/01/01 04:59:18;;;;;;;0.63;0.20;;;;;;;19.40;47.18;97790.66;7395973;19;20010;-50
2024/01/01 05:01:44;;;;;;;0.17;0.10;;;;;;;22.70;42.69;97794.25;7397294;19;20037;-51
2024/01/01 05:04:10;;;;;;;0.10;0.10;;;;;;;23.37;40.95;97793.66;7394949;19;20021;-51
2024/01/01 05:06:37;;;;;;;0.68;0.22;;;;;;;22.52;42.20;97810.75;7395678;19;20014;-50
2024/01/01 05:09:03;;;;;;;0.10;0.10;;;;;;;22.47;42.18;97811.84;7393722;19;20022;-51
2024/01/01 05:11:29;;;;;;;0.22;0.22;;;;;;;21.16;44.02;97821.00;7397350;19;20021;-50
2024/01/01 05:13:55;;;;;;;0.52;0.15;;;;;;;24.05;40.15;97820.75;7395118;19;20006;-50
2024/01/01 05:16:22;;;;;;;0.10;0.10;;;;;;;22.09;42.48;97831.91;7391709;19;20401;-50
2024/01/01 05:18:49;;;;;;;0.30;0.30;;;;;;;20.18;45.74;97826.34;7395237;19;20014;-50
2024/01/01 05:21:15;;;;;;;7.82;0.47;;;;;;;19.32;47.69;97829.47;7395841;19;20023;-50
2024/01/01 05:23:42;;;;;;;0.10;0.10;;;;;;;19.40;48.42;97835.81;7396942;19;20006;-50
2024/01/01 05:26:08;;;;;;;0.13;0.13;;;;;;;19.43;48.77;97839.53;7395120;19;20019;-50
2024/01/01 05:28:34;;;;;;;0.45;0.10;;;;;;;18.81;50.43;97852.09;7395282;19;20045;-50
2024/01/01 05:31:00;;;;;;;0.20;0.20;;;;;;;18.11;53.03;97853.31;7395413;19;20006;-50
2024/01/01 05:33:26;;;;;;;2.05;0.10;;;;;;;17.74;56.40;97859.97;7395282;19;20014;-50
2024/01/01 05:35:52;;;;;;;0.10;0.10;;;;;;;18.06;55.59;97862.00;7394119;19;20070;-50
2024/01/01 05:38:19;;;;;;;0.22;0.20;;;;;;;18.01;56.78;97871.41;7393986;19;20081;-50
2024/01/01 05:40:46;;;;;;;0.10;0.08;;;;;;;17.96;57.99;97864.69;7393657;19;20634;-50
2024/01/01 05:43:13;;;;;;;0.10;0.10;;;;;;;18.55;56.98;97878.13;7399360;19;20010;-51
2024/01/01 05:45:39;;;;;;;0.10;0.00;;;;;;;19.01;56.77;97876.34;7395397;19;20018;-51
2024/01/01 05:48:05;;;;;;;0.10;0.10;;;;;;;18.66;55.96;97891.75;7393865;19;20006;-50
2024/01/01 05:50:31;;;;;;;11.40;0.75;;;;;;;19.93;54.07;97880.22;7392111;19;20014;-51
2024/01/01 05:52:59;;;;;;;2.47;1.92;;;;;;;20.86;51.55;97881.72;7398485;19;20380;-50
2024/01/01 05:55:25;;;;;;;1.40;0.28;;;;;;;21.43;49.10;97886.66;7393825;19;20034;-50
2024/01/01 05:57:51;;;;;;;4.03;0.30;;;;;;;21.17;48.90;97893.97;7393000;19;20029;-50
2024/01/01 06:00:19;;;;;;;0.10;0.00;;;;;;;21.03;48.89;97902.16;7394368;19;20011;-50
2024/01/01 06:02:45;;;;;;;0.10;0.10;;;;;;;19.19;52.60;97902.47;7397643;19;20011;-50
2024/01/01 06:05:11;;;;;;;0.82;0.52;;;;;;;19.01;53.79;97913.03;7393877;19;20018;-50
2024/01/01 06:07:37;;;;;;;0.10;0.05;;;;;;;22.45;49.16;97913.84;7393814;19;20044;-51
2024/01/01 06:10:03;;;;;;;0.10;0.10;;;;;;;24.38;43.85;97908.06;7393139;19;20340;-50
2024/01/01 06:12:29;;;;;;;0.10;0.10;;;;;;;21.11;47.55;97928.22;7396869;19;20022;-51
2024/01/01 06:14:56;;;;;;;0.17;0.17;;;;;;;21.13;48.22;97916.34;7392589;19;20474;-50
2024/01/01 06:17:22;;;;;;;0.10;0.10;;;;;;;24.43;43.31;97918.34;7393197;19;20019;-51
2024/01/01 06:19:50;;;;;;;0.10;0.00;;;;;;;24.90;41.55;97928.34;7392496;19;20018;-51
2024/01/01 06:22:17;;;;;;;0.10;0.10;;;;;;;26.14;39.17;97932.00;7396053;19;20347;-51
2024/01/01 06:24:43;;;;;;;0.10;0.10;;;;;;;28.06;36.45;97945.53;7393355;19;20009;-51
2024/01/01 06:27:09;;;;;;;0.20;0.20;;;;;;;28.41;35.36;97948.59;7392249;19;20007;-51
2024/01/01 06:29:36;;;;;;;0.30;0.30;;;;;;;25.62;37.43;97953.97;7393325;19;20022;-51
2024/01/01 06:32:03;;;;;;;0.43;0.43;;;;;;;22.85;40.07;97978.31;7395537;19;20023;-50
2024/01/01 06:34:29;;;;;;;0.25;0.25;;;;;;;22.53;42.25;97976.81;7392882;19;20025;-50
2024/01/01 06:36:55;;;;;;;0.10;0.10;;;;;;;22.02;42.72;97979.50;7390820;19;20026;-50
2024/01/01 06:39:21;;;;;;;0.68;0.20;;;;;;;22.91;42.05;97990.13;7392680;19;20017;-51
2024/01/01 06:41:48;;;;;;;0.10;0.10;;;;;;;22.57;42.63;97994.13;7394493;19;20034;-50
2024/01/01 06:44:14;;;;;;;0.10;0.10;;;;;;;24.14;40.56;97991.88;7394707;19;20086;-51
2024/01/01 06:46:40;;;;;;;0.10;0.10;;;;;;;23.91;40.90;98004.66;7393757;19;20477;-51
2024/01/01 06:49:09;;;;;;;0.10;0.00;;;;;;;19.67;45.89;98014.47;7393993;19;20007;-51
2024/01/01 06:51:36;;;;;;;2.35;0.20;;;;;;;18.46;50.15;98028.16;7394298;19;20396;-50
2024/01/01 06:54:02;;;;;;;0.10;0.10;;;;;;;21.23;47.92;98009.75;7394115;19;20010;-51
2024/01/01 06:56:28;;;;;;;0.10;0.10;;;;;;;21.58;43.39;98011.75;7393846;19;20074;-50
2024/01/01 06:58:54;;;;;;;0.10;0.10;;;;;;;19.85;47.10;98031.41;7392947;19;20463;-50
2024/01/01 07:01:20;;;;;;;0.75;0.25;;;;;;;19.61;48.12;98030.94;7392013;19;20007;-57
2024/01/01 07:03:46;;;;;;;1.95;0.32;;;;;;;22.76;43.90;98027.38;7392569;19;20027;-54
2024/01/01 07:06:13;;;;;;;0.10;0.10;;;;;;;27.00;36.89;98015.94;7391947;19;20370;-58
2024/01/01 07:08:39;;;;;;;0.10;0.00;;;;;;;26.32;36.87;98017.88;7392556;19;20003;-51
2024/01/01 07:11:05;;;;;;;0.10;0.10;;;;;;;26.09;36.10;98024.47;7394480;19;20010;-51
2024/01/01 07:13:31;;;;;;;0.10;0.10;;;;;;;26.87;35.29;98030.22;7394233;19;20423;-51
2024/01/01 07:15:58;;;;;;;0.10;0.10;;;;;;;26.45;35.22;98031.47;7391106;19;20070;-51
2024/01/01 07:18:25;;;;;;;0.10;0.00;;;;;;;26.42;34.63;98037.69;7395367;19;20022;-56
2024/01/01 07:20:51;;;;;;;0.10;0.10;;;;;;;26.58;34.56;98058.56;7391286;19;20018;-51
2024/01/01 07:23:18;;;;;;;0.10;0.10;;;;;;;26.57;33.95;98049.28;7394724;19;20034;-51
2024/01/01 07:25:44;;;;;;;0.10;0.10;;;;;;;26.69;33.99;98049.94;7394203;19;20016;-51
2024/01/01 07:28:10;;;;;;;0.10;0.10;;;;;;;26.87;34.00;98053.06;7393711;19;20014;-51
2024/01/01 07:30:37;;;;;;;0.10;0.10;;;;;;;27.10;33.18;98054.97;7395909;19;20361;-51
2024/01/01 07:33:03;;;;;;;0.30;0.30;;;;;;;25.11;35.02;98067.03;7394865;19;20014;-51
2024/01/01 07:35:31;;;;;;;0.10;0.10;;;;;;;25.66;34.66;98068.25;7389851;19;20010;-52
2024/01/01 07:37:57;;;;;;;0.10;0.10;;;;;;;26.44;33.76;98078.53;7395252;19;20507;-51
2024/01/01 07:40:24;;;;;;;0.10;0.10;;;;;;;26.47;33.88;98085.81;7400254;19;20021;-52
2024/01/01 07:42:50;;;;;;;0.10;0.10;;;;;;;27.62;32.45;98084.25;7399938;19;20477;-51
2024/01/01 07:45:16;;;;;;;0.10;0.10;;;;;;;28.71;31.46;98094.69;7401108;19;20355;-54
2024/01/01 07:47:42;;;;;;;0.10;0.10;;;;;;;30.10;29.87;98086.59;7402285;19;20086;-53
2024/01/01 07:50:09;;;;;;;0.20;0.20;;;;;;;31.25;28.91;98084.03;7397012;19;20021;-51
2024/01/01 07:52:35;;;;;;;0.10;0.10;;;;;;;30.29;29.20;98097.44;7397985;19;20010;-51
2024/01/01 07:55:01;;;;;;;16.65;2.10;;;;;;;30.13;28.80;98099.63;7395338;19;20018;-51
2024/01/01 07:57:27;;;;;;;0.10;0.10;;;;;;;29.63;28.90;98093.19;7397307;19;20018;-51
2024/01/01 07:59:55;;;;;;;0.10;0.10;;;;;;;29.67;29.01;98086.91;7397662;19;20029;-51
2024/01/01 08:02:22;;;;;;;0.10;0.10;;;;;;;29.82;29.03;98098.34;7398297;19;20010;-51
2024/01/01 08:04:48;;;;;;;0.47;0.47;;;;;;;29.44;29.18;98108.13;7400195;19;20014;-50
2024/01/01 08:07:14;;;;;;;0.25;0.05;;;;;;;29.52;28.65;98117.09;7400623;19;20031;-51
2024/01/01 08:09:41;;;;;;;0.20;0.20;;;;;;;29.74;28.49;98109.50;7398302;19;20035;-51
2024/01/01 08:12:08;;;;;;;0.45;0.38;;;;;;;29.28;29.23;98115.28;7395693;19;20011;-51
2024/01/01 08:14:34;;;;;;;0.13;0.13;;;;;;;29.61;28.59;98116.06;7398691;19;20010;-51
2024/01/01 08:17:00;;;;;;;0.10;0.10;;;;;;;30.02;28.73;98120.72;7394933;19;20340;-51
2024/01/01 08:19:26;;;;;;;0.20;0.20;;;;;;;30.31;28.34;98120.53;7397174;19;20038;-50
2024/01/01 08:21:53;;;;;;;0.20;0.20;;;;;;;30.15;28.18;98129.19;7394770;19;20010;-51
2024/01/01 08:24:19;;;;;;;0.10;0.10;;;;;;;30.69;27.63;98128.59;7400550;19;20030;-51
2024/01/01 08:26:45;;;;;;;6.03;0.65;;;;;;;30.29;27.68;98126.91;7396271;19;20011;-52
2024/01/01 08:29:12;;;;;;;0.10;0.10;;;;;;;29.91;27.95;98131.75;7397112;19;20014;-51
2024/01/01 08:31:38;;;;;;;0.10;0.10;;;;;;;29.74;28.04;98132.47;7396996;19;20007;-51
2024/01/01 08:34:04;;;;;;;0.10;0.10;;;;;;;29.80;27.77;98129.84;7395421;19;20072;-51
2024/01/01 08:36:31;;;;;;;0.10;0.10;;;;;;;28.34;29.19;98143.72;7393905;19;20007;-52
2024/01/01 08:38:57;;;;;;;0.47;0.30;;;;;;;27.96;29.87;98145.34;7393229;19;20467;-51
2024/01/01 08:41:23;;;;;;;0.10;0.10;;;;;;;29.16;28.19;98156.34;7393682;19;20029;-50
2024/01/01 08:43:56;;;;;;;0.10;0.10;;;;;;;29.47;27.87;98143.41;7392124;19;20343;-51
2024/01/01 08:46:26;;;;;;;2.63;0.50;;;;;;;29.73;27.55;98139.56;7391561;19;20086;-51
2024/01/01 08:48:52;;;;;;;0.20;0.20;;;;;;;29.30;28.11;98152.66;7390529;19;20095;-51
2024/01/01 08:51:19;;;;;;;0.10;0.10;;;;;;;29.08;28.22;98158.06;7391052;19;20011;-50
2024/01/01 08:53:45;;;;;;;0.20;0.20;;;;;;;28.99;28.60;98159.06;7393810;19;20014;-50
2024/01/01 08:56:11;;;;;;;0.38;0.32;;;;;;;28.59;28.22;98169.31;7387777;19;20006;-50
2024/01/01 08:58:37;;;;;;;0.13;0.13;;;;;;;27.96;29.45;98173.94;7389506;19;20698;-50
2024/01/01 09:01:05;;;;;;;0.10;0.10;;;;;;;28.79;28.57;98166.69;7389835;19;20832;-50
2024/01/01 09:03:31;;;;;;;0.15;0.15;;;;;;;27.30;29.76;98174.03;7390210;19;20041;-50
2024/01/01 09:05:58;;;;;;;0.20;0.10;;;;;;;27.59;29.12;98177.03;7394863;19;20011;-50
2024/01/01 09:08:24;;;;;;;0.90;0.40;;;;;;;27.33;29.82;98183.44;7393142;19;20014;-50
2024/01/01 09:10:50;;;;;;;2.10;0.65;;;;;;;27.22;29.65;98184.28;7395450;19;20006;-50
2024/01/01 09:13:16;;;;;;;0.10;0.10;;;;;;;25.42;31.24;98196.56;7395142;19;20040;-50
2024/01/01 09:15:43;;;;;;;0.35;0.35;;;;;;;25.00;32.26;98193.84;7397073;19;20358;-50
2024/01/01 09:18:09;;;;;;;14.43;0.57;;;;;;;26.76;30.49;98191.75;7394474;19;20010;-50
2024/01/01 09:20:35;;;;;;;0.10;0.10;;;;;;;27.47;29.78;98187.09;7395064;19;20359;-50
2024/01/01 09:23:01;;;;;;;0.10;0.10;;;;;;;27.42;30.23;98185.38;7396975;19;20023;-50
2024/01/01 09:25:27;;;;;;;0.10;0.10;;;;;;;26.00;31.58;98192.94;7399496;19;20018;-50
2024/01/01 09:27:53;;;;;;;0.10;0.10;;;;;;;24.23;33.22;98201.56;7394430;19;20014;-50
2024/01/01 09:30:19;;;;;;;0.10;0.10;;;;;;;24.03;34.19;98210.22;7395383;19;20018;-50
2024/01/01 09:32:45;;;;;;;0.10;0.10;;;;;;;25.16;32.99;98208.41;7394695;19;20006;-50
2024/01/01 09:35:12;;;;;;;0.20;0.20;;;;;;;26.07;31.99;98200.50;7397194;19;20014;-50
2024/01/01 09:37:38;;;;;;;0.13;0.13;;;;;;;38.75;22.77;98180.44;7394198;19;20018;-50
2024/01/01 09:40:05;;;;;;;0.10;0.10;;;;;;;40.06;21.06;98193.66;7395045;19;20026;-59
2024/01/01 09:42:31;;;;;;;0.25;0.25;;;;;;;40.15;20.53;98200.25;7394903;19;20010;-58
2024/01/01 09:44:58;;;;;;;0.20;0.20;;;;;;;40.39;20.18;98193.72;7395773;19;20014;-58
2024/01/01 09:47:24;;;;;;;1.27;0.45;;;;;;;40.67;19.63;98199.63;7394271;19;20017;-58
2024/01/01 09:49:50;;;;;;;0.10;0.10;;;;;;;40.24;19.81;98192.97;7394832;19;20018;-58
2024/01/01 09:52:17;;;;;;;0.30;0.28;;;;;;;40.13;19.54;98202.41;7392806;19;20017;-50
2024/01/01 09:54:43;;;;;;;0.10;0.10;;;;;;;40.29;19.49;98196.59;7391544;19;20018;-51
2024/01/01 09:57:09;;;;;;;3.30;0.38;;;;;;;40.62;18.96;98209.81;7391721;19;20014;-51
2024/01/01 09:59:37;;;;;;;0.28;0.10;;;;;;;40.84;18.80;98206.94;7393414;19;20010;-51
2024/01/01 10:02:04;;;;;;;1.60;0.75;;;;;;;40.70;18.93;98221.50;7391364;19;20038;-51
2024/01/01 10:04:31;;;;;;;0.32;0.32;;;;;;;40.77;18.79;98231.75;7394444;19;20479;-51
2024/01/01 10:07:00;;;;;;;0.20;0.20;;;;;;;40.77;18.34;98231.75;7389825;19;20014;-80
2024/01/01 10:09:27;;;;;;;0.10;0.10;;;;;;;40.91;18.51;98225.22;7384753;19;20466;-80
2024/01/01 10:12:06;;;;;;;0.10;0.10;;;;;;;41.33;18.26;98228.09;7383569;19;20014;-80
2024/01/01 10:14:32;;;;;;;0.40;0.40;;;;;;;41.35;18.40;98228.84;7382849;19;20484;-80
2024/01/01 10:17:18;;;;;;;17.52;1.05;;;;;;;41.55;18.21;98233.91;7387721;19;20024;-80
2024/01/01 10:19:51;;;;;;;0.10;0.10;;;;;;;41.34;17.98;98233.25;7383334;19;20022;-80
2024/01/01 10:22:18;;;;;;;7.22;1.45;;;;;;;41.45;17.83;98237.59;7384567;19;20474;-80
2024/01/01 10:24:49;;;;;;;0.15;0.15;;;;;;;41.54;17.92;98239.03;7388747;19;20018;-81
2024/01/01 10:27:18;;;;;;;0.10;0.10;;;;;;;41.03;18.14;98239.81;7393118;19;20423;-81
2024/01/01 10:29:49;;;;;;;0.20;0.20;;;;;;;40.92;17.98;98247.84;7388598;19;20021;-81
2024/01/01 10:32:16;;;;;;;0.30;0.30;;;;;;;41.17;17.90;98249.31;7388569;19;20023;-80
2024/01/01 10:34:46;;;;;;;0.10;0.05;;;;;;;44.02;16.58;98228.50;7386320;19;20373;-80
2024/01/01 10:37:19;;;;;;;0.10;0.10;;;;;;;42.50;16.95;98234.31;7386796;19;20479;-80
2024/01/01 10:39:47;;;;;;;0.10;0.10;;;;;;;42.34;17.06;98237.31;7387108;19;20100;-81
2024/01/01 10:42:13;;;;;;;0.10;0.00;;;;;;;42.30;16.87;98234.38;7387371;19;20015;-81
2024/01/01 10:44:39;;;;;;;0.32;0.32;;;;;;;42.28;17.03;98236.63;7387590;19;20369;-81
2024/01/01 10:47:09;;;;;;;8.55;0.47;;;;;;;42.22;16.81;98243.22;7391491;19;20069;-81
2024/01/01 10:49:39;;;;;;;3.20;0.98;;;;;;;42.03;17.42;98235.97;7387841;19;20010;-80
2024/01/01 10:52:26;;;;;;;0.87;0.47;;;;;;;42.21;17.13;98241.78;7390921;19;20340;-80
2024/01/01 10:55:05;;;;;;;0.17;0.17;;;;;;;42.54;16.75;98248.91;7390470;19;20019;-82
2024/01/01 10:57:53;;;;;;;2.15;0.75;;;;;;;42.73;16.58;98246.59;7391411;19;20015;-81
2024/01/01 11:00:22;;;;;;;9.50;1.10;;;;;;;42.56;17.06;98254.03;7390773;19;20026;-83
2024/01/01 11:02:48;;;;;;;1.50;0.32;;;;;;;43.13;16.52;98257.28;7389106;19;20019;-80
2024/01/01 11:05:16;;;;;;;0.88;0.38;;;;;;;43.15;16.50;98260.19;7389163;19;20022;-81
2024/01/01 11:07:52;;;;;;;3.78;0.90;;;;;;;43.17;16.32;98263.09;7388973;19;20400;-81
2024/01/01 11:10:37;;;;;;;3.40;0.50;;;;;;;42.95;16.93;98250.09;7390784;19;20007;-81
2024/01/01 11:13:05;;;;;;;1.45;0.65;;;;;;;43.28;16.32;98256.44;7393971;19;20011;-81
2024/01/01 11:15:40;;;;;;;0.10;0.10;;;;;;;43.25;16.39;98263.06;7397149;19;20019;-81
2024/01/01 11:18:18;;;;;;;0.38;0.38;;;;;;;42.62;16.21;98260.59;7395418;19;20018;-81
2024/01/01 11:20:50;;;;;;;3.83;0.38;;;;;;;42.00;16.24;98257.91;7393026;19;20363;-81
2024/01/01 11:23:39;;;;;;;1.77;0.52;;;;;;;41.90;16.78;98272.59;7396716;19;20366;-81
2024/01/01 11:26:26;;;;;;;4.45;0.70;;;;;;;41.91;17.00;98274.06;7395173;19;20022;-81
2024/01/01 11:28:57;;;;;;;0.10;0.10;;;;;;;41.44;17.24;98276.31;7394984;19;20420;-81
2024/01/01 11:31:28;;;;;;;0.30;0.30;;;;;;;41.32;17.34;98273.44;7396881;19;20532;-81
2024/01/01 11:34:02;;;;;;;2.08;0.73;;;;;;;41.12;17.00;98273.41;7397413;19;20021;-81